sensor_id;sensor_type;location;lat;lon;timestamp;temperature;humidity
14357;DHT22;7262;48.764;9.166;2023-01-05T00:02:18;10.90;99.90
14357;DHT22;7262;48.764;9.166;2023-01-05T00:04:45;10.80;99.90
14357;DHT22;7262;48.764;9.166;2023-01-05T00:07:11;10.80;99.90
14357;DHT22;7262;48.764;9.166;2023-01-05T00:09:38;10.70;99.90
14357;DHT22;7262;48.764;9.166;2023-01-05T00:12:07;10.70;99.90
14357;DHT22;7262;48.764;9.166;2023-01-05T00:14:52;10.70;99.90
14357;DHT22;7262;48.764;9.166;2023-01-05T00:17:45;10.70;99.90
14357;DHT22;7262;48.764;9.166;2023-01-05T00:20:28;10.80;99.90
14357;DHT22;7262;48.764;9.166;2023-01-05T00:23:13;10.80;99.90
14357;DHT22;7262;48.764;9.166;2023-01-05T00:25:40;10.80;99.90
14357;DHT22;7262;48.764;9.166;2023-01-05T00:28:08;10.80;99.90
14357;DHT22;7262;48.764;9.166;2023-01-05T00:30:37;10.90;99.90
14357;DHT22;7262;48.764;9.166;2023-01-05T00:33:06;10.90;99.90
14357;DHT22;7262;48.764;9.166;2023-01-05T00:35:33;10.90;99.90
14357;DHT22;7262;48.764;9.166;2023-01-05T00:38:00;11.00;99.90
14357;DHT22;7262;48.764;9.166;2023-01-05T00:40:27;10.90;99.90
14357;DHT22;7262;48.764;9.166;2023-01-05T00:42:53;11.00;99.90
14357;DHT22;7262;48.764;9.166;2023-01-05T00:45:21;11.00;99.90
14357;DHT22;7262;48.764;9.166;2023-01-05T00:47:48;11.00;99.90
14357;DHT22;7262;48.764;9.166;2023-01-05T00:50:17;11.00;99.90
14357;DHT22;7262;48.764;9.166;2023-01-05T00:52:44;11.00;99.90
14357;DHT22;7262;48.764;9.166;2023-01-05T00:55:11;11.00;99.90
14357;DHT22;7262;48.764;9.166;2023-01-05T00:57:38;11.10;99.90
14357;DHT22;7262;48.764;9.166;2023-01-05T01:00:05;11.00;99.90
14357;DHT22;7262;48.764;9.166;2023-01-05T01:02:34;11.00;99.90
14357;DHT22;7262;48.764;9.166;2023-01-05T01:05:01;11.00;99.90
14357;DHT22;7262;48.764;9.166;2023-01-05T01:07:27;11.10;99.90
14357;DHT22;7262;48.764;9.166;2023-01-05T01:09:54;11.10;99.90
14357;DHT22;7262;48.764;9.166;2023-01-05T01:12:21;11.10;99.90
14357;DHT22;7262;48.764;9.166;2023-01-05T01:14:48;11.10;99.90
14357;DHT22;7262;48.764;9.166;2023-01-05T01:17:15;11.10;99.90
14357;DHT22;7262;48.764;9.166;2023-01-05T01:19:43;11.10;99.90
14357;DHT22;7262;48.764;9.166;2023-01-05T01:22:11;11.10;99.90
14357;DHT22;7262;48.764;9.166;2023-01-05T01:24:38;11.10;99.90
14357;DHT22;7262;48.764;9.166;2023-01-05T01:27:04;11.10;99.90
14357;DHT22;7262;48.764;9.166;2023-01-05T01:29:31;11.10;99.90
14357;DHT22;7262;48.764;9.166;2023-01-05T01:31:58;11.10;99.90
14357;DHT22;7262;48.764;9.166;2023-01-05T01:34:25;11.10;99.90
14357;DHT22;7262;48.764;9.166;2023-01-05T01:36:54;11.10;99.90
14357;DHT22;7262;48.764;9.166;2023-01-05T01:39:22;11.10;99.90
14357;DHT22;7262;48.764;9.166;2023-01-05T01:41:48;11.10;99.90
14357;DHT22;7262;48.764;9.166;2023-01-05T01:47:01;11.10;99.90
14357;DHT22;7262;48.764;9.166;2023-01-05T01:49:28;11.10;99.90
14357;DHT22;7262;48.764;9.166;2023-01-05T01:51:56;11.10;99.90
14357;DHT22;7262;48.764;9.166;2023-01-05T01:54:23;11.10;99.90
14357;DHT22;7262;48.764;9.166;2023-01-05T01:56:50;11.10;99.90
14357;DHT22;7262;48.764;9.166;2023-01-05T01:59:18;11.10;99.90
14357;DHT22;7262;48.764;9.166;2023-01-05T02:01:45;11.00;99.90
14357;DHT22;7262;48.764;9.166;2023-01-05T02:04:14;11.00;99.90
14357;DHT22;7262;48.764;9.166;2023-01-05T02:06:41;11.00;99.90
14357;DHT22;7262;48.764;9.166;2023-01-05T02:09:09;11.00;99.90
14357;DHT22;7262;48.764;9.166;2023-01-05T02:11:37;11.00;99.90
14357;DHT22;7262;48.764;9.166;2023-01-05T02:14:09;11.00;99.90
14357;DHT22;7262;48.764;9.166;2023-01-05T02:16:41;11.00;99.90
14357;DHT22;7262;48.764;9.166;2023-01-05T02:19:16;11.10;99.90
14357;DHT22;7262;48.764;9.166;2023-01-05T02:21:46;11.00;99.90
14357;DHT22;7262;48.764;9.166;2023-01-05T02:24:25;11.00;99.90
14357;DHT22;7262;48.764;9.166;2023-01-05T02:27:18;11.10;99.90
14357;DHT22;7262;48.764;9.166;2023-01-05T02:32:38;11.10;99.90
14357;DHT22;7262;48.764;9.166;2023-01-05T02:35:10;11.10;99.90
14357;DHT22;7262;48.764;9.166;2023-01-05T02:37:40;11.10;99.90
14357;DHT22;7262;48.764;9.166;2023-01-05T02:40:09;11.10;99.90
14357;DHT22;7262;48.764;9.166;2023-01-05T02:42:39;11.10;99.90
14357;DHT22;7262;48.764;9.166;2023-01-05T02:45:08;11.10;99.90
14357;DHT22;7262;48.764;9.166;2023-01-05T02:47:36;11.10;99.90
14357;DHT22;7262;48.764;9.166;2023-01-05T02:50:09;11.10;99.90
14357;DHT22;7262;48.764;9.166;2023-01-05T02:52:37;11.00;99.90
14357;DHT22;7262;48.764;9.166;2023-01-05T02:55:06;11.10;99.90
14357;DHT22;7262;48.764;9.166;2023-01-05T02:57:35;11.10;99.90
14357;DHT22;7262;48.764;9.166;2023-01-05T03:00:18;11.00;99.90
14357;DHT22;7262;48.764;9.166;2023-01-05T03:02:45;11.00;99.90
14357;DHT22;7262;48.764;9.166;2023-01-05T03:05:16;11.00;99.90
14357;DHT22;7262;48.764;9.166;2023-01-05T03:07:44;11.10;99.90
14357;DHT22;7262;48.764;9.166;2023-01-05T03:10:12;11.00;99.90
14357;DHT22;7262;48.764;9.166;2023-01-05T03:12:56;11.10;99.90
14357;DHT22;7262;48.764;9.166;2023-01-05T03:15:44;11.10;99.90
14357;DHT22;7262;48.764;9.166;2023-01-05T03:18:13;11.10;99.90
14357;DHT22;7262;48.764;9.166;2023-01-05T03:20:43;11.10;99.90
14357;DHT22;7262;48.764;9.166;2023-01-05T03:23:11;11.10;99.90
14357;DHT22;7262;48.764;9.166;2023-01-05T03:25:55;11.10;99.90
14357;DHT22;7262;48.764;9.166;2023-01-05T03:28:41;11.10;99.90
14357;DHT22;7262;48.764;9.166;2023-01-05T03:31:27;11.00;99.90
14357;DHT22;7262;48.764;9.166;2023-01-05T03:34:15;11.00;99.90
14357;DHT22;7262;48.764;9.166;2023-01-05T03:37:02;11.00;99.90
14357;DHT22;7262;48.764;9.166;2023-01-05T03:39:29;11.00;99.90
14357;DHT22;7262;48.764;9.166;2023-01-05T03:41:58;11.00;99.90
14357;DHT22;7262;48.764;9.166;2023-01-05T03:44:25;11.00;99.90
14357;DHT22;7262;48.764;9.166;2023-01-05T03:46:52;11.00;99.90
14357;DHT22;7262;48.764;9.166;2023-01-05T03:49:18;11.00;99.90
14357;DHT22;7262;48.764;9.166;2023-01-05T03:51:45;11.10;99.90
14357;DHT22;7262;48.764;9.166;2023-01-05T03:54:13;11.10;99.90
14357;DHT22;7262;48.764;9.166;2023-01-05T03:56:41;11.10;99.90
14357;DHT22;7262;48.764;9.166;2023-01-05T03:59:10;11.10;99.90
14357;DHT22;7262;48.764;9.166;2023-01-05T04:01:36;11.20;99.90
14357;DHT22;7262;48.764;9.166;2023-01-05T04:04:03;11.20;99.90
14357;DHT22;7262;48.764;9.166;2023-01-05T04:06:30;11.20;99.90
14357;DHT22;7262;48.764;9.166;2023-01-05T04:08:57;11.30;99.90
14357;DHT22;7262;48.764;9.166;2023-01-05T04:11:25;11.20;99.90
14357;DHT22;7262;48.764;9.166;2023-01-05T04:13:52;11.20;99.90
14357;DHT22;7262;48.764;9.166;2023-01-05T04:16:19;11.30;99.90
14357;DHT22;7262;48.764;9.166;2023-01-05T04:18:45;11.30;99.90
14357;DHT22;7262;48.764;9.166;2023-01-05T04:21:12;11.30;99.90
14357;DHT22;7262;48.764;9.166;2023-01-05T04:23:39;11.20;99.90
14357;DHT22;7262;48.764;9.166;2023-01-05T04:26:06;11.30;99.90
14357;DHT22;7262;48.764;9.166;2023-01-05T04:28:34;11.30;99.90
14357;DHT22;7262;48.764;9.166;2023-01-05T04:31:01;11.30;99.90
14357;DHT22;7262;48.764;9.166;2023-01-05T04:33:27;11.30;99.90
14357;DHT22;7262;48.764;9.166;2023-01-05T04:35:54;11.40;99.90
14357;DHT22;7262;48.764;9.166;2023-01-05T04:38:21;11.40;99.90
14357;DHT22;7262;48.764;9.166;2023-01-05T04:40:48;11.50;99.90
14357;DHT22;7262;48.764;9.166;2023-01-05T04:43:15;11.50;99.90
14357;DHT22;7262;48.764;9.166;2023-01-05T04:45:43;11.50;99.90
14357;DHT22;7262;48.764;9.166;2023-01-05T04:48:11;11.60;99.90
14357;DHT22;7262;48.764;9.166;2023-01-05T04:50:38;11.60;99.90
14357;DHT22;7262;48.764;9.166;2023-01-05T04:53:04;11.60;99.90
14357;DHT22;7262;48.764;9.166;2023-01-05T04:55:31;11.60;99.90
14357;DHT22;7262;48.764;9.166;2023-01-05T04:57:58;11.60;99.90
14357;DHT22;7262;48.764;9.166;2023-01-05T05:00:25;11.60;99.90
14357;DHT22;7262;48.764;9.166;2023-01-05T05:02:53;11.60;99.90
14357;DHT22;7262;48.764;9.166;2023-01-05T05:05:19;11.60;99.90
14357;DHT22;7262;48.764;9.166;2023-01-05T05:07:46;11.70;99.90
14357;DHT22;7262;48.764;9.166;2023-01-05T05:10:13;11.70;99.90
14357;DHT22;7262;48.764;9.166;2023-01-05T05:12:42;11.60;99.90
14357;DHT22;7262;48.764;9.166;2023-01-05T05:15:09;11.70;99.90
14357;DHT22;7262;48.764;9.166;2023-01-05T05:17:36;11.60;99.90
14357;DHT22;7262;48.764;9.166;2023-01-05T05:20:05;11.60;99.90
14357;DHT22;7262;48.764;9.166;2023-01-05T05:22:32;11.60;99.90
14357;DHT22;7262;48.764;9.166;2023-01-05T05:24:59;11.60;99.90
14357;DHT22;7262;48.764;9.166;2023-01-05T05:27:25;11.60;99.90
14357;DHT22;7262;48.764;9.166;2023-01-05T05:29:52;11.60;99.90
14357;DHT22;7262;48.764;9.166;2023-01-05T05:32:19;11.60;99.90
14357;DHT22;7262;48.764;9.166;2023-01-05T05:34:45;11.60;99.90
14357;DHT22;7262;48.764;9.166;2023-01-05T05:37:14;11.60;99.90
14357;DHT22;7262;48.764;9.166;2023-01-05T05:39:40;11.50;99.90
14357;DHT22;7262;48.764;9.166;2023-01-05T05:42:07;11.50;99.90
14357;DHT22;7262;48.764;9.166;2023-01-05T05:44:34;11.30;99.90
14357;DHT22;7262;48.764;9.166;2023-01-05T05:47:01;11.20;99.90
14357;DHT22;7262;48.764;9.166;2023-01-05T05:49:27;11.10;99.90
14357;DHT22;7262;48.764;9.166;2023-01-05T05:51:54;11.00;99.90
14357;DHT22;7262;48.764;9.166;2023-01-05T05:54:22;10.90;99.90
14357;DHT22;7262;48.764;9.166;2023-01-05T05:56:49;10.80;99.90
14357;DHT22;7262;48.764;9.166;2023-01-05T05:59:16;10.70;99.90
14357;DHT22;7262;48.764;9.166;2023-01-05T06:01:43;10.70;99.90
14357;DHT22;7262;48.764;9.166;2023-01-05T06:04:10;10.70;99.90
14357;DHT22;7262;48.764;9.166;2023-01-05T06:06:37;10.60;99.90
14357;DHT22;7262;48.764;9.166;2023-01-05T06:09:04;10.60;99.90
14357;DHT22;7262;48.764;9.166;2023-01-05T06:11:33;10.60;99.90
14357;DHT22;7262;48.764;9.166;2023-01-05T06:14:00;10.50;99.90
14357;DHT22;7262;48.764;9.166;2023-01-05T06:16:27;10.50;99.90
14357;DHT22;7262;48.764;9.166;2023-01-05T06:18:54;10.50;99.90
14357;DHT22;7262;48.764;9.166;2023-01-05T06:21:20;10.50;99.90
14357;DHT22;7262;48.764;9.166;2023-01-05T06:23:47;10.40;99.90
14357;DHT22;7262;48.764;9.166;2023-01-05T06:26:14;10.40;99.90
14357;DHT22;7262;48.764;9.166;2023-01-05T06:28:42;10.40;99.90
14357;DHT22;7262;48.764;9.166;2023-01-05T06:31:09;10.40;99.90
14357;DHT22;7262;48.764;9.166;2023-01-05T06:33:36;10.30;99.90
14357;DHT22;7262;48.764;9.166;2023-01-05T06:36:02;10.30;99.90
14357;DHT22;7262;48.764;9.166;2023-01-05T06:38:29;10.30;99.90
14357;DHT22;7262;48.764;9.166;2023-01-05T06:51:19;10.20;99.90
14357;DHT22;7262;48.764;9.166;2023-01-05T06:53:46;10.20;99.90
14357;DHT22;7262;48.764;9.166;2023-01-05T06:56:13;10.20;99.90
14357;DHT22;7262;48.764;9.166;2023-01-05T06:58:40;10.20;99.90
14357;DHT22;7262;48.764;9.166;2023-01-05T07:01:07;10.20;99.90
14357;DHT22;7262;48.764;9.166;2023-01-05T07:03:34;10.20;99.90
14357;DHT22;7262;48.764;9.166;2023-01-05T07:06:07;10.10;99.90
14357;DHT22;7262;48.764;9.166;2023-01-05T07:08:35;10.20;99.90
14357;DHT22;7262;48.764;9.166;2023-01-05T07:11:04;10.20;99.90
14357;DHT22;7262;48.764;9.166;2023-01-05T07:13:31;10.20;99.90
14357;DHT22;7262;48.764;9.166;2023-01-05T07:15:58;10.20;99.90
14357;DHT22;7262;48.764;9.166;2023-01-05T07:18:25;10.10;99.90
14357;DHT22;7262;48.764;9.166;2023-01-05T07:20:52;10.20;99.90
14357;DHT22;7262;48.764;9.166;2023-01-05T07:23:18;10.10;99.90
14357;DHT22;7262;48.764;9.166;2023-01-05T07:25:47;10.10;99.90
14357;DHT22;7262;48.764;9.166;2023-01-05T07:28:13;10.10;99.90
14357;DHT22;7262;48.764;9.166;2023-01-05T07:30:40;10.20;99.90
14357;DHT22;7262;48.764;9.166;2023-01-05T07:33:07;10.20;99.90
14357;DHT22;7262;48.764;9.166;2023-01-05T07:35:34;10.20;99.90
14357;DHT22;7262;48.764;9.166;2023-01-05T07:38:01;10.10;99.90
14357;DHT22;7262;48.764;9.166;2023-01-05T07:40:34;10.10;99.90
14357;DHT22;7262;48.764;9.166;2023-01-05T07:43:02;10.00;99.90
14357;DHT22;7262;48.764;9.166;2023-01-05T07:45:30;10.10;99.90
14357;DHT22;7262;48.764;9.166;2023-01-05T07:47:56;10.00;99.90
14357;DHT22;7262;48.764;9.166;2023-01-05T07:50:24;10.00;99.90
14357;DHT22;7262;48.764;9.166;2023-01-05T07:52:51;10.00;99.90
14357;DHT22;7262;48.764;9.166;2023-01-05T07:55:19;10.00;99.90
14357;DHT22;7262;48.764;9.166;2023-01-05T07:57:46;10.00;99.90
14357;DHT22;7262;48.764;9.166;2023-01-05T08:00:15;10.10;99.90
14357;DHT22;7262;48.764;9.166;2023-01-05T08:02:42;10.10;99.90
14357;DHT22;7262;48.764;9.166;2023-01-05T08:05:10;10.10;99.90
14357;DHT22;7262;48.764;9.166;2023-01-05T08:07:37;10.20;99.90
14357;DHT22;7262;48.764;9.166;2023-01-05T08:10:04;10.20;99.90
14357;DHT22;7262;48.764;9.166;2023-01-05T08:12:48;10.30;99.90
14357;DHT22;7262;48.764;9.166;2023-01-05T08:15:34;10.30;99.90
14357;DHT22;7262;48.764;9.166;2023-01-05T08:18:01;10.30;99.90
14357;DHT22;7262;48.764;9.166;2023-01-05T08:20:28;10.30;99.90
14357;DHT22;7262;48.764;9.166;2023-01-05T08:22:55;10.30;99.90
14357;DHT22;7262;48.764;9.166;2023-01-05T08:25:25;10.30;99.90
14357;DHT22;7262;48.764;9.166;2023-01-05T08:27:55;10.30;99.90
14357;DHT22;7262;48.764;9.166;2023-01-05T08:30:22;10.50;99.90
14357;DHT22;7262;48.764;9.166;2023-01-05T08:32:59;10.40;99.90
14357;DHT22;7262;48.764;9.166;2023-01-05T08:35:27;10.40;99.90
14357;DHT22;7262;48.764;9.166;2023-01-05T08:37:54;10.40;99.90
14357;DHT22;7262;48.764;9.166;2023-01-05T08:40:23;10.50;99.90
14357;DHT22;7262;48.764;9.166;2023-01-05T08:42:50;10.60;99.90
14357;DHT22;7262;48.764;9.166;2023-01-05T08:45:18;10.70;99.90
14357;DHT22;7262;48.764;9.166;2023-01-05T08:47:46;10.80;99.90
14357;DHT22;7262;48.764;9.166;2023-01-05T08:50:15;10.80;99.90
14357;DHT22;7262;48.764;9.166;2023-01-05T08:52:42;10.90;99.90
14357;DHT22;7262;48.764;9.166;2023-01-05T08:55:09;10.90;99.90
14357;DHT22;7262;48.764;9.166;2023-01-05T08:57:36;11.00;99.90
14357;DHT22;7262;48.764;9.166;2023-01-05T09:00:04;11.00;99.90
14357;DHT22;7262;48.764;9.166;2023-01-05T09:02:32;11.10;99.90
14357;DHT22;7262;48.764;9.166;2023-01-05T09:04:59;11.10;99.90
14357;DHT22;7262;48.764;9.166;2023-01-05T09:07:27;11.10;99.90
14357;DHT22;7262;48.764;9.166;2023-01-05T09:09:55;11.00;99.90
14357;DHT22;7262;48.764;9.166;2023-01-05T09:12:22;11.10;99.90
14357;DHT22;7262;48.764;9.166;2023-01-05T09:14:49;11.10;99.90
14357;DHT22;7262;48.764;9.166;2023-01-05T09:17:18;11.10;99.90
14357;DHT22;7262;48.764;9.166;2023-01-05T09:19:46;11.20;99.90
14357;DHT22;7262;48.764;9.166;2023-01-05T09:22:13;11.10;99.90
14357;DHT22;7262;48.764;9.166;2023-01-05T09:24:41;11.10;99.90
14357;DHT22;7262;48.764;9.166;2023-01-05T09:27:08;11.20;99.90
14357;DHT22;7262;48.764;9.166;2023-01-05T09:29:35;11.20;99.90
14357;DHT22;7262;48.764;9.166;2023-01-05T09:32:02;11.20;99.90
14357;DHT22;7262;48.764;9.166;2023-01-05T09:34:29;11.30;99.90
14357;DHT22;7262;48.764;9.166;2023-01-05T09:36:56;11.30;99.90
14357;DHT22;7262;48.764;9.166;2023-01-05T09:39:22;11.30;99.90
14357;DHT22;7262;48.764;9.166;2023-01-05T09:41:51;11.30;99.90
14357;DHT22;7262;48.764;9.166;2023-01-05T09:44:22;11.40;99.90
14357;DHT22;7262;48.764;9.166;2023-01-05T09:46:52;11.30;99.90
14357;DHT22;7262;48.764;9.166;2023-01-05T09:49:20;11.40;99.90
14357;DHT22;7262;48.764;9.166;2023-01-05T09:51:47;11.40;99.90
14357;DHT22;7262;48.764;9.166;2023-01-05T09:54:16;11.50;99.90
14357;DHT22;7262;48.764;9.166;2023-01-05T09:56:44;11.60;99.90
14357;DHT22;7262;48.764;9.166;2023-01-05T09:59:17;11.60;99.90
14357;DHT22;7262;48.764;9.166;2023-01-05T10:01:44;11.70;99.90
14357;DHT22;7262;48.764;9.166;2023-01-05T10:04:14;11.70;99.90
14357;DHT22;7262;48.764;9.166;2023-01-05T10:06:44;11.70;99.90
14357;DHT22;7262;48.764;9.166;2023-01-05T10:09:12;11.70;99.90
14357;DHT22;7262;48.764;9.166;2023-01-05T10:11:43;11.70;99.90
14357;DHT22;7262;48.764;9.166;2023-01-05T10:14:29;11.80;99.90
14357;DHT22;7262;48.764;9.166;2023-01-05T10:16:57;11.80;99.90
14357;DHT22;7262;48.764;9.166;2023-01-05T10:19:24;11.90;99.90
14357;DHT22;7262;48.764;9.166;2023-01-05T10:21:54;11.70;99.90
14357;DHT22;7262;48.764;9.166;2023-01-05T10:24:26;12.00;99.90
14357;DHT22;7262;48.764;9.166;2023-01-05T10:26:56;12.00;99.90
14357;DHT22;7262;48.764;9.166;2023-01-05T10:29:26;12.10;99.90
14357;DHT22;7262;48.764;9.166;2023-01-05T10:32:01;12.20;99.90
14357;DHT22;7262;48.764;9.166;2023-01-05T10:34:34;12.10;99.90
14357;DHT22;7262;48.764;9.166;2023-01-05T10:37:07;12.10;99.90
14357;DHT22;7262;48.764;9.166;2023-01-05T10:39:47;12.10;99.90
14357;DHT22;7262;48.764;9.166;2023-01-05T10:42:17;12.10;99.90
14357;DHT22;7262;48.764;9.166;2023-01-05T10:44:51;12.10;99.90
14357;DHT22;7262;48.764;9.166;2023-01-05T10:47:24;12.20;99.90
14357;DHT22;7262;48.764;9.166;2023-01-05T10:49:57;12.30;99.90
14357;DHT22;7262;48.764;9.166;2023-01-05T10:52:25;12.30;99.90
14357;DHT22;7262;48.764;9.166;2023-01-05T10:54:56;12.30;99.90
14357;DHT22;7262;48.764;9.166;2023-01-05T10:57:30;12.30;99.90
14357;DHT22;7262;48.764;9.166;2023-01-05T10:59:58;12.30;99.90
14357;DHT22;7262;48.764;9.166;2023-01-05T11:02:30;12.40;99.90
14357;DHT22;7262;48.764;9.166;2023-01-05T11:07:45;12.30;99.90
14357;DHT22;7262;48.764;9.166;2023-01-05T11:10:18;12.20;99.90
14357;DHT22;7262;48.764;9.166;2023-01-05T11:12:49;12.20;99.90
14357;DHT22;7262;48.764;9.166;2023-01-05T11:15:16;12.20;99.90
14357;DHT22;7262;48.764;9.166;2023-01-05T11:17:53;12.10;99.90
14357;DHT22;7262;48.764;9.166;2023-01-05T11:38:31;12.30;99.90
14357;DHT22;7262;48.764;9.166;2023-01-05T11:40:59;12.30;99.90
14357;DHT22;7262;48.764;9.166;2023-01-05T11:43:28;12.30;99.90
14357;DHT22;7262;48.764;9.166;2023-01-05T11:45:56;12.40;99.90
14357;DHT22;7262;48.764;9.166;2023-01-05T11:48:33;12.30;99.90
14357;DHT22;7262;48.764;9.166;2023-01-05T11:51:02;12.30;99.90
14357;DHT22;7262;48.764;9.166;2023-01-05T11:53:38;12.30;99.90
14357;DHT22;7262;48.764;9.166;2023-01-05T11:56:13;12.50;99.90
14357;DHT22;7262;48.764;9.166;2023-01-05T11:58:42;12.30;99.90
14357;DHT22;7262;48.764;9.166;2023-01-05T12:01:20;12.40;99.90
14357;DHT22;7262;48.764;9.166;2023-01-05T12:03:57;12.50;99.90
14357;DHT22;7262;48.764;9.166;2023-01-05T12:06:34;12.40;99.90
14357;DHT22;7262;48.764;9.166;2023-01-05T12:09:06;12.40;99.90
14357;DHT22;7262;48.764;9.166;2023-01-05T12:11:38;12.50;99.90
14357;DHT22;7262;48.764;9.166;2023-01-05T12:14:14;12.30;99.90
14357;DHT22;7262;48.764;9.166;2023-01-05T12:16:45;12.40;99.90
14357;DHT22;7262;48.764;9.166;2023-01-05T12:19:20;12.40;99.90
14357;DHT22;7262;48.764;9.166;2023-01-05T12:21:51;12.40;99.90
14357;DHT22;7262;48.764;9.166;2023-01-05T12:24:28;12.50;99.90
14357;DHT22;7262;48.764;9.166;2023-01-05T12:27:04;12.70;99.90
14357;DHT22;7262;48.764;9.166;2023-01-05T12:29:41;12.50;99.90
14357;DHT22;7262;48.764;9.166;2023-01-05T12:32:16;12.50;99.90
14357;DHT22;7262;48.764;9.166;2023-01-05T12:37:37;12.70;99.90
14357;DHT22;7262;48.764;9.166;2023-01-05T12:48:22;12.40;99.90
14357;DHT22;7262;48.764;9.166;2023-01-05T12:50:51;12.40;99.90
14357;DHT22;7262;48.764;9.166;2023-01-05T12:53:22;12.40;99.90
14357;DHT22;7262;48.764;9.166;2023-01-05T12:55:52;12.50;99.90
14357;DHT22;7262;48.764;9.166;2023-01-05T12:58:22;12.50;99.90
14357;DHT22;7262;48.764;9.166;2023-01-05T13:00:49;12.50;99.90
14357;DHT22;7262;48.764;9.166;2023-01-05T13:03:27;12.50;99.90
14357;DHT22;7262;48.764;9.166;2023-01-05T13:05:56;12.50;99.90
14357;DHT22;7262;48.764;9.166;2023-01-05T13:08:31;12.50;99.90
14357;DHT22;7262;48.764;9.166;2023-01-05T13:11:00;12.60;99.90
14357;DHT22;7262;48.764;9.166;2023-01-05T13:13:29;12.50;99.90
14357;DHT22;7262;48.764;9.166;2023-01-05T13:15:57;12.50;99.90
14357;DHT22;7262;48.764;9.166;2023-01-05T13:18:27;12.50;99.90
14357;DHT22;7262;48.764;9.166;2023-01-05T13:20:56;12.40;99.90
14357;DHT22;7262;48.764;9.166;2023-01-05T13:23:25;12.50;99.90
14357;DHT22;7262;48.764;9.166;2023-01-05T13:25:54;12.50;99.90
14357;DHT22;7262;48.764;9.166;2023-01-05T13:28:22;12.40;99.90
14357;DHT22;7262;48.764;9.166;2023-01-05T13:30:53;12.40;99.90
14357;DHT22;7262;48.764;9.166;2023-01-05T13:33:37;12.30;99.90
14357;DHT22;7262;48.764;9.166;2023-01-05T13:36:09;12.30;99.90
14357;DHT22;7262;48.764;9.166;2023-01-05T13:38:53;12.20;99.90
14357;DHT22;7262;48.764;9.166;2023-01-05T13:41:25;12.30;99.90
14357;DHT22;7262;48.764;9.166;2023-01-05T13:46:45;12.20;99.90
14357;DHT22;7262;48.764;9.166;2023-01-05T13:52:00;12.50;99.90
14357;DHT22;7262;48.764;9.166;2023-01-05T13:54:38;12.30;99.90
14357;DHT22;7262;48.764;9.166;2023-01-05T13:57:06;12.30;99.90
14357;DHT22;7262;48.764;9.166;2023-01-05T13:59:34;12.30;99.90
14357;DHT22;7262;48.764;9.166;2023-01-05T14:02:02;12.40;99.90
14357;DHT22;7262;48.764;9.166;2023-01-05T14:04:31;12.30;99.90
14357;DHT22;7262;48.764;9.166;2023-01-05T14:06:59;12.30;99.90
14357;DHT22;7262;48.764;9.166;2023-01-05T14:09:33;12.20;99.90
14357;DHT22;7262;48.764;9.166;2023-01-05T14:14:57;12.10;99.90
14357;DHT22;7262;48.764;9.166;2023-01-05T16:26:40;11.20;99.90
14357;DHT22;7262;48.764;9.166;2023-01-05T16:32:02;11.20;99.90
14357;DHT22;7262;48.764;9.166;2023-01-05T16:34:29;11.10;99.90
14357;DHT22;7262;48.764;9.166;2023-01-05T16:36:58;11.20;99.90
14357;DHT22;7262;48.764;9.166;2023-01-05T16:39:24;11.10;99.90
14357;DHT22;7262;48.764;9.166;2023-01-05T16:42:02;11.20;99.90
14357;DHT22;7262;48.764;9.166;2023-01-05T16:44:50;11.10;99.90
14357;DHT22;7262;48.764;9.166;2023-01-05T16:47:18;11.10;99.90
14357;DHT22;7262;48.764;9.166;2023-01-05T16:49:56;11.00;99.90
14357;DHT22;7262;48.764;9.166;2023-01-05T16:52:23;11.20;99.90
14357;DHT22;7262;48.764;9.166;2023-01-05T16:55:12;11.10;99.90
14357;DHT22;7262;48.764;9.166;2023-01-05T16:57:46;11.10;99.90
14357;DHT22;7262;48.764;9.166;2023-01-05T17:00:34;11.10;99.90
14357;DHT22;7262;48.764;9.166;2023-01-05T17:03:01;11.10;99.90
14357;DHT22;7262;48.764;9.166;2023-01-05T17:05:29;11.10;99.90
14357;DHT22;7262;48.764;9.166;2023-01-05T17:07:58;11.10;99.90
14357;DHT22;7262;48.764;9.166;2023-01-05T17:10:28;11.20;99.90
14357;DHT22;7262;48.764;9.166;2023-01-05T17:12:58;11.10;99.90
14357;DHT22;7262;48.764;9.166;2023-01-05T17:15:26;10.90;99.90
14357;DHT22;7262;48.764;9.166;2023-01-05T17:17:54;11.10;99.90
14357;DHT22;7262;48.764;9.166;2023-01-05T17:20:22;11.10;99.90
14357;DHT22;7262;48.764;9.166;2023-01-05T17:22:50;11.00;99.90
14357;DHT22;7262;48.764;9.166;2023-01-05T17:25:19;11.00;99.90
14357;DHT22;7262;48.764;9.166;2023-01-05T17:27:46;11.00;99.90
14357;DHT22;7262;48.764;9.166;2023-01-05T17:30:17;11.00;99.90
14357;DHT22;7262;48.764;9.166;2023-01-05T17:32:44;11.00;99.90
14357;DHT22;7262;48.764;9.166;2023-01-05T17:35:12;11.10;99.90
14357;DHT22;7262;48.764;9.166;2023-01-05T17:37:38;11.10;99.90
14357;DHT22;7262;48.764;9.166;2023-01-05T17:40:06;11.10;99.90
14357;DHT22;7262;48.764;9.166;2023-01-05T17:42:33;11.20;99.90
14357;DHT22;7262;48.764;9.166;2023-01-05T17:45:13;11.20;99.90
14357;DHT22;7262;48.764;9.166;2023-01-05T17:47:41;11.10;99.90
14357;DHT22;7262;48.764;9.166;2023-01-05T17:50:10;11.00;99.90
14357;DHT22;7262;48.764;9.166;2023-01-05T17:52:38;11.10;99.90
14357;DHT22;7262;48.764;9.166;2023-01-05T17:55:05;11.10;99.90
14357;DHT22;7262;48.764;9.166;2023-01-05T17:57:32;11.00;99.90
14357;DHT22;7262;48.764;9.166;2023-01-05T17:59:59;11.00;99.90
14357;DHT22;7262;48.764;9.166;2023-01-05T18:02:26;11.00;99.90
14357;DHT22;7262;48.764;9.166;2023-01-05T18:04:54;10.90;99.90
14357;DHT22;7262;48.764;9.166;2023-01-05T18:07:22;10.90;99.90
14357;DHT22;7262;48.764;9.166;2023-01-05T18:09:48;11.00;99.90
14357;DHT22;7262;48.764;9.166;2023-01-05T18:12:15;10.90;99.90
14357;DHT22;7262;48.764;9.166;2023-01-05T18:14:42;10.80;99.90
14357;DHT22;7262;48.764;9.166;2023-01-05T18:17:09;10.80;99.90
14357;DHT22;7262;48.764;9.166;2023-01-05T18:19:36;10.90;99.90
14357;DHT22;7262;48.764;9.166;2023-01-05T18:22:04;10.80;99.90
14357;DHT22;7262;48.764;9.166;2023-01-05T18:24:31;10.80;99.90
14357;DHT22;7262;48.764;9.166;2023-01-05T18:26:58;10.90;99.90
14357;DHT22;7262;48.764;9.166;2023-01-05T18:29:24;10.80;99.90
14357;DHT22;7262;48.764;9.166;2023-01-05T18:31:51;10.80;99.90
14357;DHT22;7262;48.764;9.166;2023-01-05T18:34:18;10.80;99.90
14357;DHT22;7262;48.764;9.166;2023-01-05T18:36:45;10.90;99.90
14357;DHT22;7262;48.764;9.166;2023-01-05T18:39:13;10.90;99.90
14357;DHT22;7262;48.764;9.166;2023-01-05T18:41:41;10.80;99.90
14357;DHT22;7262;48.764;9.166;2023-01-05T18:44:07;10.90;99.90
14357;DHT22;7262;48.764;9.166;2023-01-05T18:46:34;10.80;99.90
14357;DHT22;7262;48.764;9.166;2023-01-05T18:49:01;10.80;99.90
14357;DHT22;7262;48.764;9.166;2023-01-05T18:51:28;10.80;99.90
14357;DHT22;7262;48.764;9.166;2023-01-05T18:53:54;10.90;99.90
14357;DHT22;7262;48.764;9.166;2023-01-05T18:56:24;11.10;99.90
14357;DHT22;7262;48.764;9.166;2023-01-05T18:58:51;11.10;99.90
14357;DHT22;7262;48.764;9.166;2023-01-05T19:01:19;11.10;99.90
14357;DHT22;7262;48.764;9.166;2023-01-05T19:03:46;11.20;99.90
14357;DHT22;7262;48.764;9.166;2023-01-05T19:06:15;11.10;99.90
14357;DHT22;7262;48.764;9.166;2023-01-05T19:11:19;11.10;99.90